sensor_id;sensor_type;location;lat;lon;timestamp;P1;durP1;ratioP1;P2;durP2;ratioP2
46765;SDS011;32527;51.986;5.842;2024-02-26T00:02:18;2.22;;;2.03;;
46765;SDS011;32527;51.986;5.842;2024-02-26T00:04:44;2.03;;;1.70;;
46765;SDS011;32527;51.986;5.842;2024-02-26T00:07:10;2.45;;;1.80;;
46765;SDS011;32527;51.986;5.842;2024-02-26T00:09:36;1.60;;;1.50;;
46765;SDS011;32527;51.986;5.842;2024-02-26T00:12:03;7.88;;;2.30;;
46765;SDS011;32527;51.986;5.842;2024-02-26T00:14:30;2.00;;;1.65;;
46765;SDS011;32527;51.986;5.842;2024-02-26T00:16:57;3.15;;;2.22;;
46765;SDS011;32527;51.986;5.842;2024-02-26T00:19:23;2.90;;;2.20;;
46765;SDS011;32527;51.986;5.842;2024-02-26T00:21:49;8.93;;;1.33;;
46765;SDS011;32527;51.986;5.842;2024-02-26T00:24:15;3.00;;;1.88;;
46765;SDS011;32527;51.986;5.842;2024-02-26T00:26:41;3.75;;;2.08;;
46765;SDS011;32527;51.986;5.842;2024-02-26T00:29:07;2.50;;;1.75;;
46765;SDS011;32527;51.986;5.842;2024-02-26T00:31:33;2.90;;;1.92;;
46765;SDS011;32527;51.986;5.842;2024-02-26T00:34:00;1.67;;;1.48;;
46765;SDS011;32527;51.986;5.842;2024-02-26T00:36:26;4.85;;;2.47;;
46765;SDS011;32527;51.986;5.842;2024-02-26T00:38:52;2.42;;;2.22;;
46765;SDS011;32527;51.986;5.842;2024-02-26T00:41:18;3.85;;;1.75;;
46765;SDS011;32527;51.986;5.842;2024-02-26T00:43:44;4.18;;;1.95;;
46765;SDS011;32527;51.986;5.842;2024-02-26T00:46:10;1.50;;;1.40;;
46765;SDS011;32527;51.986;5.842;2024-02-26T00:48:36;7.15;;;2.08;;
46765;SDS011;32527;51.986;5.842;2024-02-26T00:51:03;3.03;;;2.30;;
46765;SDS011;32527;51.986;5.842;2024-02-26T00:53:33;3.55;;;2.38;;
46765;SDS011;32527;51.986;5.842;2024-02-26T00:55:59;2.35;;;2.05;;
46765;SDS011;32527;51.986;5.842;2024-02-26T00:58:26;2.55;;;2.28;;
46765;SDS011;32527;51.986;5.842;2024-02-26T01:00:52;1.88;;;1.73;;
46765;SDS011;32527;51.986;5.842;2024-02-26T01:03:18;3.47;;;2.53;;
46765;SDS011;32527;51.986;5.842;2024-02-26T01:05:44;3.33;;;2.38;;
46765;SDS011;32527;51.986;5.842;2024-02-26T01:08:11;2.25;;;1.95;;
46765;SDS011;32527;51.986;5.842;2024-02-26T01:10:37;3.40;;;2.00;;
46765;SDS011;32527;51.986;5.842;2024-02-26T01:13:03;3.88;;;2.15;;
46765;SDS011;32527;51.986;5.842;2024-02-26T01:15:29;2.88;;;2.45;;
46765;SDS011;32527;51.986;5.842;2024-02-26T01:17:55;2.15;;;2.05;;
46765;SDS011;32527;51.986;5.842;2024-02-26T01:20:21;9.10;;;3.42;;
46765;SDS011;32527;51.986;5.842;2024-02-26T01:22:47;3.10;;;2.10;;
46765;SDS011;32527;51.986;5.842;2024-02-26T01:25:13;4.18;;;2.60;;
46765;SDS011;32527;51.986;5.842;2024-02-26T01:27:41;2.47;;;1.90;;
46765;SDS011;32527;51.986;5.842;2024-02-26T01:30:09;4.35;;;2.80;;
46765;SDS011;32527;51.986;5.842;2024-02-26T01:32:35;2.90;;;2.35;;
46765;SDS011;32527;51.986;5.842;2024-02-26T01:35:01;16.65;;;3.25;;
46765;SDS011;32527;51.986;5.842;2024-02-26T01:37:35;2.67;;;1.92;;
46765;SDS011;32527;51.986;5.842;2024-02-26T01:40:01;2.58;;;2.17;;
46765;SDS011;32527;51.986;5.842;2024-02-26T01:42:29;3.38;;;2.58;;
46765;SDS011;32527;51.986;5.842;2024-02-26T01:44:59;4.35;;;2.58;;
46765;SDS011;32527;51.986;5.842;2024-02-26T01:47:25;4.13;;;2.63;;
46765;SDS011;32527;51.986;5.842;2024-02-26T01:49:52;2.78;;;1.88;;
46765;SDS011;32527;51.986;5.842;2024-02-26T01:52:18;4.78;;;1.80;;
46765;SDS011;32527;51.986;5.842;2024-02-26T01:54:44;5.10;;;2.92;;
46765;SDS011;32527;51.986;5.842;2024-02-26T01:57:11;4.78;;;3.25;;
46765;SDS011;32527;51.986;5.842;2024-02-26T01:59:37;2.78;;;2.50;;
46765;SDS011;32527;51.986;5.842;2024-02-26T02:02:05;3.55;;;2.42;;
46765;SDS011;32527;51.986;5.842;2024-02-26T02:04:32;4.95;;;2.88;;
46765;SDS011;32527;51.986;5.842;2024-02-26T02:06:58;2.47;;;2.25;;
46765;SDS011;32527;51.986;5.842;2024-02-26T02:09:26;3.70;;;2.78;;
46765;SDS011;32527;51.986;5.842;2024-02-26T02:11:52;5.93;;;2.65;;
46765;SDS011;32527;51.986;5.842;2024-02-26T02:14:19;6.35;;;3.40;;
46765;SDS011;32527;51.986;5.842;2024-02-26T02:16:45;9.38;;;2.60;;
46765;SDS011;32527;51.986;5.842;2024-02-26T02:19:11;2.70;;;2.17;;
46765;SDS011;32527;51.986;5.842;2024-02-26T02:21:37;3.83;;;2.70;;
46765;SDS011;32527;51.986;5.842;2024-02-26T02:24:03;2.17;;;1.92;;
46765;SDS011;32527;51.986;5.842;2024-02-26T02:26:29;5.75;;;2.63;;
46765;SDS011;32527;51.986;5.842;2024-02-26T02:28:56;3.38;;;2.47;;
46765;SDS011;32527;51.986;5.842;2024-02-26T02:31:22;5.30;;;3.15;;
46765;SDS011;32527;51.986;5.842;2024-02-26T02:33:48;5.72;;;2.35;;
46765;SDS011;32527;51.986;5.842;2024-02-26T02:36:15;2.92;;;2.38;;
46765;SDS011;32527;51.986;5.842;2024-02-26T02:38:50;6.15;;;3.67;;
46765;SDS011;32527;51.986;5.842;2024-02-26T02:41:16;4.30;;;2.47;;
46765;SDS011;32527;51.986;5.842;2024-02-26T02:43:42;3.40;;;2.55;;
46765;SDS011;32527;51.986;5.842;2024-02-26T02:46:08;3.35;;;2.60;;
46765;SDS011;32527;51.986;5.842;2024-02-26T02:48:36;4.03;;;2.72;;
46765;SDS011;32527;51.986;5.842;2024-02-26T02:51:03;3.00;;;2.60;;
46765;SDS011;32527;51.986;5.842;2024-02-26T02:53:29;3.20;;;2.60;;
46765;SDS011;32527;51.986;5.842;2024-02-26T02:55:55;3.45;;;2.45;;
46765;SDS011;32527;51.986;5.842;2024-02-26T02:58:21;4.65;;;2.97;;
46765;SDS011;32527;51.986;5.842;2024-02-26T03:00:47;13.07;;;2.95;;
46765;SDS011;32527;51.986;5.842;2024-02-26T03:03:13;3.17;;;1.95;;
46765;SDS011;32527;51.986;5.842;2024-02-26T03:05:39;3.78;;;2.35;;
46765;SDS011;32527;51.986;5.842;2024-02-26T03:08:05;2.42;;;1.52;;
46765;SDS011;32527;51.986;5.842;2024-02-26T03:10:31;3.10;;;2.80;;
46765;SDS011;32527;51.986;5.842;2024-02-26T03:12:57;4.50;;;3.00;;
46765;SDS011;32527;51.986;5.842;2024-02-26T03:15:23;2.45;;;2.08;;
46765;SDS011;32527;51.986;5.842;2024-02-26T03:17:49;4.30;;;3.15;;
46765;SDS011;32527;51.986;5.842;2024-02-26T03:20:15;2.88;;;2.65;;
46765;SDS011;32527;51.986;5.842;2024-02-26T03:22:44;10.05;;;2.60;;
46765;SDS011;32527;51.986;5.842;2024-02-26T03:25:10;2.28;;;2.08;;
46765;SDS011;32527;51.986;5.842;2024-02-26T03:27:36;3.92;;;2.53;;
46765;SDS011;32527;51.986;5.842;2024-02-26T03:30:02;2.90;;;2.30;;
46765;SDS011;32527;51.986;5.842;2024-02-26T03:32:29;2.33;;;1.63;;
46765;SDS011;32527;51.986;5.842;2024-02-26T03:34:55;3.38;;;2.28;;
46765;SDS011;32527;51.986;5.842;2024-02-26T03:37:21;7.40;;;2.72;;
46765;SDS011;32527;51.986;5.842;2024-02-26T03:39:47;5.07;;;3.08;;
46765;SDS011;32527;51.986;5.842;2024-02-26T03:42:13;4.25;;;2.55;;
46765;SDS011;32527;51.986;5.842;2024-02-26T03:44:39;4.03;;;2.85;;
46765;SDS011;32527;51.986;5.842;2024-02-26T03:47:05;2.85;;;2.40;;
46765;SDS011;32527;51.986;5.842;2024-02-26T03:49:31;3.97;;;2.65;;
46765;SDS011;32527;51.986;5.842;2024-02-26T03:51:57;4.22;;;2.65;;
46765;SDS011;32527;51.986;5.842;2024-02-26T03:54:23;4.55;;;2.83;;
46765;SDS011;32527;51.986;5.842;2024-02-26T03:56:49;2.70;;;2.28;;
46765;SDS011;32527;51.986;5.842;2024-02-26T03:59:15;4.28;;;3.22;;
46765;SDS011;32527;51.986;5.842;2024-02-26T04:01:48;3.83;;;2.83;;
46765;SDS011;32527;51.986;5.842;2024-02-26T04:04:14;4.38;;;2.90;;
46765;SDS011;32527;51.986;5.842;2024-02-26T04:06:44;6.72;;;3.03;;
46765;SDS011;32527;51.986;5.842;2024-02-26T04:09:10;3.30;;;2.88;;
46765;SDS011;32527;51.986;5.842;2024-02-26T04:11:36;4.43;;;2.95;;
46765;SDS011;32527;51.986;5.842;2024-02-26T04:14:02;4.22;;;2.92;;
46765;SDS011;32527;51.986;5.842;2024-02-26T04:16:29;4.63;;;3.08;;
46765;SDS011;32527;51.986;5.842;2024-02-26T04:18:55;3.70;;;2.50;;
46765;SDS011;32527;51.986;5.842;2024-02-26T04:21:21;4.03;;;2.70;;
46765;SDS011;32527;51.986;5.842;2024-02-26T04:23:47;3.83;;;2.92;;
46765;SDS011;32527;51.986;5.842;2024-02-26T04:26:14;8.43;;;4.00;;
46765;SDS011;32527;51.986;5.842;2024-02-26T04:28:40;5.35;;;3.78;;
46765;SDS011;32527;51.986;5.842;2024-02-26T04:31:06;5.70;;;3.47;;
46765;SDS011;32527;51.986;5.842;2024-02-26T04:33:36;4.80;;;2.67;;
46765;SDS011;32527;51.986;5.842;2024-02-26T04:36:02;5.95;;;3.03;;
46765;SDS011;32527;51.986;5.842;2024-02-26T04:38:28;6.00;;;3.97;;
46765;SDS011;32527;51.986;5.842;2024-02-26T04:40:54;5.05;;;3.70;;
46765;SDS011;32527;51.986;5.842;2024-02-26T04:43:20;7.88;;;3.42;;
46765;SDS011;32527;51.986;5.842;2024-02-26T04:45:46;8.98;;;3.85;;
46765;SDS011;32527;51.986;5.842;2024-02-26T04:48:13;4.70;;;3.25;;
46765;SDS011;32527;51.986;5.842;2024-02-26T04:50:39;6.10;;;2.83;;
46765;SDS011;32527;51.986;5.842;2024-02-26T04:53:05;3.88;;;3.40;;
46765;SDS011;32527;51.986;5.842;2024-02-26T04:55:31;4.95;;;3.70;;
46765;SDS011;32527;51.986;5.842;2024-02-26T04:57:57;6.28;;;3.33;;
46765;SDS011;32527;51.986;5.842;2024-02-26T05:00:23;6.85;;;4.20;;
46765;SDS011;32527;51.986;5.842;2024-02-26T05:02:49;12.15;;;3.05;;
46765;SDS011;32527;51.986;5.842;2024-02-26T05:05:16;4.82;;;3.10;;
46765;SDS011;32527;51.986;5.842;2024-02-26T05:07:44;6.65;;;4.13;;
46765;SDS011;32527;51.986;5.842;2024-02-26T05:10:10;4.93;;;3.85;;
46765;SDS011;32527;51.986;5.842;2024-02-26T05:12:36;7.03;;;4.13;;
46765;SDS011;32527;51.986;5.842;2024-02-26T05:15:03;5.95;;;3.30;;
46765;SDS011;32527;51.986;5.842;2024-02-26T05:17:29;6.82;;;3.13;;
46765;SDS011;32527;51.986;5.842;2024-02-26T05:19:55;7.60;;;4.38;;
46765;SDS011;32527;51.986;5.842;2024-02-26T05:22:21;6.93;;;3.63;;
46765;SDS011;32527;51.986;5.842;2024-02-26T05:24:47;3.28;;;2.97;;
46765;SDS011;32527;51.986;5.842;2024-02-26T05:27:13;7.25;;;3.97;;
46765;SDS011;32527;51.986;5.842;2024-02-26T05:29:39;10.70;;;4.03;;
46765;SDS011;32527;51.986;5.842;2024-02-26T05:32:05;17.73;;;3.53;;
46765;SDS011;32527;51.986;5.842;2024-02-26T05:34:31;5.28;;;3.97;;
46765;SDS011;32527;51.986;5.842;2024-02-26T05:36:58;6.07;;;3.95;;
46765;SDS011;32527;51.986;5.842;2024-02-26T05:39:24;10.52;;;4.07;;
46765;SDS011;32527;51.986;5.842;2024-02-26T05:41:50;7.28;;;4.20;;
46765;SDS011;32527;51.986;5.842;2024-02-26T05:44:16;4.35;;;3.10;;
46765;SDS011;32527;51.986;5.842;2024-02-26T05:46:43;5.68;;;3.83;;
46765;SDS011;32527;51.986;5.842;2024-02-26T05:49:09;4.80;;;3.22;;
46765;SDS011;32527;51.986;5.842;2024-02-26T05:51:35;4.72;;;3.40;;
46765;SDS011;32527;51.986;5.842;2024-02-26T05:54:01;5.55;;;3.45;;
46765;SDS011;32527;51.986;5.842;2024-02-26T05:56:27;3.85;;;2.83;;
46765;SDS011;32527;51.986;5.842;2024-02-26T05:58:53;4.95;;;3.63;;
46765;SDS011;32527;51.986;5.842;2024-02-26T06:01:19;4.40;;;3.35;;
46765;SDS011;32527;51.986;5.842;2024-02-26T06:03:46;6.25;;;3.90;;
46765;SDS011;32527;51.986;5.842;2024-02-26T06:06:12;4.30;;;3.25;;
46765;SDS011;32527;51.986;5.842;2024-02-26T06:08:40;3.67;;;2.67;;
46765;SDS011;32527;51.986;5.842;2024-02-26T06:11:06;7.07;;;4.68;;
46765;SDS011;32527;51.986;5.842;2024-02-26T06:13:33;12.00;;;4.20;;
46765;SDS011;32527;51.986;5.842;2024-02-26T06:15:59;4.93;;;3.13;;
46765;SDS011;32527;51.986;5.842;2024-02-26T06:18:25;5.25;;;2.97;;
46765;SDS011;32527;51.986;5.842;2024-02-26T06:20:51;5.32;;;3.60;;
46765;SDS011;32527;51.986;5.842;2024-02-26T06:23:17;6.20;;;4.28;;
46765;SDS011;32527;51.986;5.842;2024-02-26T06:25:43;4.18;;;2.95;;
46765;SDS011;32527;51.986;5.842;2024-02-26T06:28:09;4.55;;;3.15;;
46765;SDS011;32527;51.986;5.842;2024-02-26T06:30:35;5.93;;;4.20;;
46765;SDS011;32527;51.986;5.842;2024-02-26T06:33:01;6.75;;;2.58;;
46765;SDS011;32527;51.986;5.842;2024-02-26T06:35:28;4.60;;;3.20;;
46765;SDS011;32527;51.986;5.842;2024-02-26T06:37:54;3.33;;;3.03;;
46765;SDS011;32527;51.986;5.842;2024-02-26T06:40:20;6.93;;;4.05;;
46765;SDS011;32527;51.986;5.842;2024-02-26T06:42:47;4.68;;;2.67;;
46765;SDS011;32527;51.986;5.842;2024-02-26T06:45:13;5.43;;;3.92;;
46765;SDS011;32527;51.986;5.842;2024-02-26T06:47:39;6.45;;;3.33;;
46765;SDS011;32527;51.986;5.842;2024-02-26T06:50:05;4.25;;;2.80;;
46765;SDS011;32527;51.986;5.842;2024-02-26T06:52:31;6.80;;;4.00;;
46765;SDS011;32527;51.986;5.842;2024-02-26T06:54:57;5.50;;;4.35;;
46765;SDS011;32527;51.986;5.842;2024-02-26T06:57:23;3.55;;;2.88;;
46765;SDS011;32527;51.986;5.842;2024-02-26T06:59:50;7.63;;;5.07;;
46765;SDS011;32527;51.986;5.842;2024-02-26T07:02:17;9.48;;;4.70;;
46765;SDS011;32527;51.986;5.842;2024-02-26T07:04:43;4.53;;;3.17;;
46765;SDS011;32527;51.986;5.842;2024-02-26T07:07:09;7.57;;;4.13;;
46765;SDS011;32527;51.986;5.842;2024-02-26T07:09:36;6.95;;;4.30;;
46765;SDS011;32527;51.986;5.842;2024-02-26T07:12:02;12.38;;;5.90;;
46765;SDS011;32527;51.986;5.842;2024-02-26T07:14:28;10.05;;;4.57;;
46765;SDS011;32527;51.986;5.842;2024-02-26T07:16:54;8.25;;;4.75;;
46765;SDS011;32527;51.986;5.842;2024-02-26T07:19:20;4.90;;;3.20;;
46765;SDS011;32527;51.986;5.842;2024-02-26T07:21:46;7.80;;;4.93;;
46765;SDS011;32527;51.986;5.842;2024-02-26T07:24:12;9.00;;;5.50;;
46765;SDS011;32527;51.986;5.842;2024-02-26T07:26:38;7.70;;;5.97;;
46765;SDS011;32527;51.986;5.842;2024-02-26T07:29:04;11.48;;;4.88;;
46765;SDS011;32527;51.986;5.842;2024-02-26T07:31:30;5.60;;;3.53;;
46765;SDS011;32527;51.986;5.842;2024-02-26T07:33:58;11.52;;;4.68;;
46765;SDS011;32527;51.986;5.842;2024-02-26T07:36:24;6.65;;;3.95;;
46765;SDS011;32527;51.986;5.842;2024-02-26T07:38:51;9.90;;;5.65;;
46765;SDS011;32527;51.986;5.842;2024-02-26T07:41:20;9.00;;;4.88;;
46765;SDS011;32527;51.986;5.842;2024-02-26T07:43:46;6.88;;;4.88;;
46765;SDS011;32527;51.986;5.842;2024-02-26T07:46:12;9.20;;;5.38;;
46765;SDS011;32527;51.986;5.842;2024-02-26T07:48:38;7.18;;;5.35;;
46765;SDS011;32527;51.986;5.842;2024-02-26T07:51:04;8.80;;;5.35;;
46765;SDS011;32527;51.986;5.842;2024-02-26T07:53:30;7.82;;;4.97;;
46765;SDS011;32527;51.986;5.842;2024-02-26T07:55:56;11.20;;;6.32;;
46765;SDS011;32527;51.986;5.842;2024-02-26T07:58:25;6.50;;;3.60;;
46765;SDS011;32527;51.986;5.842;2024-02-26T08:00:52;9.98;;;6.07;;
46765;SDS011;32527;51.986;5.842;2024-02-26T08:03:19;10.43;;;5.75;;
46765;SDS011;32527;51.986;5.842;2024-02-26T08:05:45;10.80;;;5.38;;
46765;SDS011;32527;51.986;5.842;2024-02-26T08:08:11;11.80;;;6.43;;
46765;SDS011;32527;51.986;5.842;2024-02-26T08:10:37;10.73;;;5.95;;
46765;SDS011;32527;51.986;5.842;2024-02-26T08:13:03;9.25;;;5.63;;
46765;SDS011;32527;51.986;5.842;2024-02-26T08:15:32;6.28;;;5.07;;
46765;SDS011;32527;51.986;5.842;2024-02-26T08:18:02;8.85;;;5.32;;
46765;SDS011;32527;51.986;5.842;2024-02-26T08:20:29;10.32;;;6.10;;
46765;SDS011;32527;51.986;5.842;2024-02-26T08:22:56;9.40;;;6.05;;
46765;SDS011;32527;51.986;5.842;2024-02-26T08:25:22;10.68;;;5.93;;
46765;SDS011;32527;51.986;5.842;2024-02-26T08:27:48;8.82;;;5.57;;
46765;SDS011;32527;51.986;5.842;2024-02-26T08:30:15;6.93;;;4.55;;
46765;SDS011;32527;51.986;5.842;2024-02-26T08:32:45;11.43;;;6.57;;
46765;SDS011;32527;51.986;5.842;2024-02-26T08:35:11;19.55;;;6.07;;
46765;SDS011;32527;51.986;5.842;2024-02-26T08:37:38;17.67;;;7.43;;
46765;SDS011;32527;51.986;5.842;2024-02-26T08:40:04;8.18;;;4.60;;
46765;SDS011;32527;51.986;5.842;2024-02-26T08:42:31;8.30;;;5.75;;
46765;SDS011;32527;51.986;5.842;2024-02-26T08:44:57;10.18;;;6.10;;
46765;SDS011;32527;51.986;5.842;2024-02-26T08:47:26;15.20;;;6.10;;
46765;SDS011;32527;51.986;5.842;2024-02-26T08:49:53;11.63;;;5.40;;
46765;SDS011;32527;51.986;5.842;2024-02-26T08:52:19;6.65;;;4.25;;
46765;SDS011;32527;51.986;5.842;2024-02-26T08:54:46;10.73;;;5.70;;
46765;SDS011;32527;51.986;5.842;2024-02-26T08:57:12;13.48;;;5.60;;
46765;SDS011;32527;51.986;5.842;2024-02-26T08:59:38;11.35;;;6.45;;
46765;SDS011;32527;51.986;5.842;2024-02-26T09:02:04;12.98;;;7.13;;
46765;SDS011;32527;51.986;5.842;2024-02-26T09:04:30;9.02;;;5.70;;
46765;SDS011;32527;51.986;5.842;2024-02-26T09:06:56;13.52;;;6.85;;
46765;SDS011;32527;51.986;5.842;2024-02-26T09:09:22;7.15;;;4.88;;
46765;SDS011;32527;51.986;5.842;2024-02-26T09:11:51;9.30;;;6.18;;
46765;SDS011;32527;51.986;5.842;2024-02-26T09:14:18;12.10;;;6.15;;
46765;SDS011;32527;51.986;5.842;2024-02-26T09:16:43;15.77;;;8.20;;
46765;SDS011;32527;51.986;5.842;2024-02-26T09:19:09;13.18;;;6.65;;
46765;SDS011;32527;51.986;5.842;2024-02-26T09:21:35;16.77;;;7.00;;
46765;SDS011;32527;51.986;5.842;2024-02-26T09:24:01;11.73;;;6.63;;
46765;SDS011;32527;51.986;5.842;2024-02-26T09:26:28;13.73;;;6.32;;
46765;SDS011;32527;51.986;5.842;2024-02-26T09:28:54;17.42;;;7.90;;
46765;SDS011;32527;51.986;5.842;2024-02-26T09:31:20;12.95;;;6.43;;
46765;SDS011;32527;51.986;5.842;2024-02-26T09:33:46;12.75;;;7.38;;
46765;SDS011;32527;51.986;5.842;2024-02-26T09:36:12;11.45;;;6.28;;
46765;SDS011;32527;51.986;5.842;2024-02-26T09:38:38;10.60;;;6.72;;
46765;SDS011;32527;51.986;5.842;2024-02-26T09:41:05;13.65;;;6.70;;
46765;SDS011;32527;51.986;5.842;2024-02-26T09:43:34;13.48;;;6.50;;
46765;SDS011;32527;51.986;5.842;2024-02-26T09:46:01;12.05;;;5.78;;
46765;SDS011;32527;51.986;5.842;2024-02-26T09:48:27;9.18;;;5.45;;
46765;SDS011;32527;51.986;5.842;2024-02-26T09:50:54;10.63;;;5.93;;
46765;SDS011;32527;51.986;5.842;2024-02-26T09:53:20;9.20;;;4.38;;
46765;SDS011;32527;51.986;5.842;2024-02-26T09:55:47;10.82;;;5.50;;
46765;SDS011;32527;51.986;5.842;2024-02-26T09:58:13;10.05;;;6.50;;
46765;SDS011;32527;51.986;5.842;2024-02-26T10:00:43;9.30;;;4.65;;
46765;SDS011;32527;51.986;5.842;2024-02-26T10:03:15;12.77;;;5.93;;
46765;SDS011;32527;51.986;5.842;2024-02-26T10:05:41;11.13;;;5.85;;
46765;SDS011;32527;51.986;5.842;2024-02-26T10:08:10;11.35;;;7.13;;
46765;SDS011;32527;51.986;5.842;2024-02-26T10:10:36;9.93;;;5.97;;
46765;SDS011;32527;51.986;5.842;2024-02-26T10:13:03;7.30;;;4.72;;
46765;SDS011;32527;51.986;5.842;2024-02-26T10:15:35;11.00;;;6.40;;
46765;SDS011;32527;51.986;5.842;2024-02-26T10:18:07;14.05;;;6.45;;
46765;SDS011;32527;51.986;5.842;2024-02-26T10:20:33;9.98;;;5.78;;
46765;SDS011;32527;51.986;5.842;2024-02-26T10:23:03;11.80;;;5.28;;
46765;SDS011;32527;51.986;5.842;2024-02-26T10:25:30;12.30;;;6.60;;
46765;SDS011;32527;51.986;5.842;2024-02-26T10:27:59;10.00;;;6.55;;
46765;SDS011;32527;51.986;5.842;2024-02-26T10:30:27;10.63;;;5.57;;
46765;SDS011;32527;51.986;5.842;2024-02-26T10:32:56;9.48;;;6.10;;
46765;SDS011;32527;51.986;5.842;2024-02-26T10:35:23;14.02;;;6.50;;
46765;SDS011;32527;51.986;5.842;2024-02-26T10:37:49;11.98;;;6.18;;
46765;SDS011;32527;51.986;5.842;2024-02-26T10:40:17;10.30;;;5.38;;
46765;SDS011;32527;51.986;5.842;2024-02-26T10:42:43;10.35;;;5.82;;
46765;SDS011;32527;51.986;5.842;2024-02-26T10:45:12;12.55;;;4.97;;
46765;SDS011;32527;51.986;5.842;2024-02-26T10:47:39;14.85;;;7.57;;
46765;SDS011;32527;51.986;5.842;2024-02-26T10:50:07;10.07;;;5.78;;
46765;SDS011;32527;51.986;5.842;2024-02-26T10:52:33;18.40;;;4.72;;
46765;SDS011;32527;51.986;5.842;2024-02-26T10:55:27;9.55;;;4.88;;
46765;SDS011;32527;51.986;5.842;2024-02-26T10:58:13;9.18;;;5.80;;
46765;SDS011;32527;51.986;5.842;2024-02-26T11:00:40;6.53;;;4.50;;
46765;SDS011;32527;51.986;5.842;2024-02-26T11:03:06;9.90;;;5.40;;
46765;SDS011;32527;51.986;5.842;2024-02-26T11:05:35;9.20;;;5.82;;
46765;SDS011;32527;51.986;5.842;2024-02-26T11:08:03;9.80;;;4.88;;
46765;SDS011;32527;51.986;5.842;2024-02-26T11:10:31;10.98;;;6.28;;
46765;SDS011;32527;51.986;5.842;2024-02-26T11:12:57;11.18;;;6.72;;
46765;SDS011;32527;51.986;5.842;2024-02-26T11:15:25;20.52;;;7.95;;
46765;SDS011;32527;51.986;5.842;2024-02-26T11:17:52;16.90;;;6.35;;
46765;SDS011;32527;51.986;5.842;2024-02-26T11:20:19;9.55;;;6.25;;
46765;SDS011;32527;51.986;5.842;2024-02-26T11:22:45;12.23;;;7.38;;
46765;SDS011;32527;51.986;5.842;2024-02-26T11:25:11;10.02;;;5.60;;
46765;SDS011;32527;51.986;5.842;2024-02-26T11:27:51;7.28;;;5.38;;
46765;SDS011;32527;51.986;5.842;2024-02-26T11:30:19;8.90;;;4.13;;
46765;SDS011;32527;51.986;5.842;2024-02-26T11:32:47;10.30;;;5.35;;
46765;SDS011;32527;51.986;5.842;2024-02-26T11:35:13;13.07;;;6.20;;
46765;SDS011;32527;51.986;5.842;2024-02-26T11:37:41;7.47;;;4.85;;
46765;SDS011;32527;51.986;5.842;2024-02-26T11:40:13;7.15;;;4.03;;
46765;SDS011;32527;51.986;5.842;2024-02-26T11:42:43;12.95;;;6.60;;
46765;SDS011;32527;51.986;5.842;2024-02-26T11:48:26;18.40;;;6.22;;
46765;SDS011;32527;51.986;5.842;2024-02-26T11:50:52;9.13;;;4.93;;
46765;SDS011;32527;51.986;5.842;2024-02-26T11:55:48;15.02;;;7.22;;
46765;SDS011;32527;51.986;5.842;2024-02-26T11:58:34;8.05;;;5.25;;
46765;SDS011;32527;51.986;5.842;2024-02-26T12:01:00;9.90;;;5.47;;
46765;SDS011;32527;51.986;5.842;2024-02-26T12:03:26;9.82;;;4.72;;
46765;SDS011;32527;51.986;5.842;2024-02-26T12:05:52;6.35;;;3.47;;
46765;SDS011;32527;51.986;5.842;2024-02-26T12:08:18;8.32;;;5.57;;
46765;SDS011;32527;51.986;5.842;2024-02-26T12:10:48;10.35;;;5.75;;
46765;SDS011;32527;51.986;5.842;2024-02-26T12:13:14;16.17;;;5.05;;
46765;SDS011;32527;51.986;5.842;2024-02-26T12:15:45;11.27;;;5.78;;
46765;SDS011;32527;51.986;5.842;2024-02-26T12:18:20;9.70;;;5.65;;
46765;SDS011;32527;51.986;5.842;2024-02-26T12:20:46;9.80;;;5.63;;
46765;SDS011;32527;51.986;5.842;2024-02-26T12:23:16;10.40;;;4.82;;
46765;SDS011;32527;51.986;5.842;2024-02-26T12:25:44;5.88;;;4.32;;
46765;SDS011;32527;51.986;5.842;2024-02-26T12:28:13;11.52;;;5.45;;
46765;SDS011;32527;51.986;5.842;2024-02-26T12:30:40;8.93;;;5.65;;
46765;SDS011;32527;51.986;5.842;2024-02-26T12:33:06;6.85;;;3.17;;
46765;SDS011;32527;51.986;5.842;2024-02-26T12:35:33;9.02;;;4.57;;
46765;SDS011;32527;51.986;5.842;2024-02-26T12:38:00;7.65;;;4.78;;
46765;SDS011;32527;51.986;5.842;2024-02-26T12:40:26;6.53;;;4.20;;
46765;SDS011;32527;51.986;5.842;2024-02-26T12:42:53;5.88;;;4.57;;
46765;SDS011;32527;51.986;5.842;2024-02-26T12:45:20;7.20;;;4.57;;
46765;SDS011;32527;51.986;5.842;2024-02-26T12:47:46;6.30;;;4.10;;
46765;SDS011;32527;51.986;5.842;2024-02-26T12:50:15;12.63;;;4.03;;
46765;SDS011;32527;51.986;5.842;2024-02-26T12:52:45;7.00;;;4.32;;
46765;SDS011;32527;51.986;5.842;2024-02-26T12:55:15;4.57;;;3.22;;
46765;SDS011;32527;51.986;5.842;2024-02-26T12:57:46;7.18;;;4.53;;
46765;SDS011;32527;51.986;5.842;2024-02-26T13:00:15;6.72;;;4.35;;
46765;SDS011;32527;51.986;5.842;2024-02-26T13:02:43;6.30;;;3.97;;
46765;SDS011;32527;51.986;5.842;2024-02-26T13:05:10;4.85;;;3.47;;
46765;SDS011;32527;51.986;5.842;2024-02-26T13:07:45;5.60;;;3.92;;
46765;SDS011;32527;51.986;5.842;2024-02-26T13:10:15;6.75;;;4.45;;
46765;SDS011;32527;51.986;5.842;2024-02-26T13:12:46;8.05;;;4.78;;
46765;SDS011;32527;51.986;5.842;2024-02-26T13:15:20;5.80;;;3.55;;
46765;SDS011;32527;51.986;5.842;2024-02-26T13:17:46;5.97;;;4.35;;
46765;SDS011;32527;51.986;5.842;2024-02-26T13:20:13;5.13;;;4.15;;
46765;SDS011;32527;51.986;5.842;2024-02-26T13:22:50;8.52;;;4.25;;
46765;SDS011;32527;51.986;5.842;2024-02-26T13:25:20;7.82;;;5.15;;
46765;SDS011;32527;51.986;5.842;2024-02-26T13:27:46;8.15;;;5.00;;
46765;SDS011;32527;51.986;5.842;2024-02-26T13:30:12;9.35;;;5.18;;
46765;SDS011;32527;51.986;5.842;2024-02-26T13:32:39;5.85;;;4.57;;
46765;SDS011;32527;51.986;5.842;2024-02-26T13:37:32;7.80;;;3.72;;
46765;SDS011;32527;51.986;5.842;2024-02-26T13:39:59;7.57;;;4.93;;
46765;SDS011;32527;51.986;5.842;2024-02-26T13:42:25;7.47;;;2.95;;
46765;SDS011;32527;51.986;5.842;2024-02-26T13:44:51;8.85;;;5.40;;
46765;SDS011;32527;51.986;5.842;2024-02-26T13:47:17;7.45;;;3.92;;
46765;SDS011;32527;51.986;5.842;2024-02-26T13:49:43;7.78;;;4.80;;
46765;SDS011;32527;51.986;5.842;2024-02-26T13:52:09;6.43;;;3.90;;
46765;SDS011;32527;51.986;5.842;2024-02-26T13:54:35;8.10;;;3.90;;
46765;SDS011;32527;51.986;5.842;2024-02-26T13:57:03;8.15;;;5.00;;
46765;SDS011;32527;51.986;5.842;2024-02-26T13:59:29;11.45;;;6.10;;
46765;SDS011;32527;51.986;5.842;2024-02-26T14:01:55;7.30;;;4.05;;
46765;SDS011;32527;51.986;5.842;2024-02-26T14:04:21;10.18;;;5.93;;
46765;SDS011;32527;51.986;5.842;2024-02-26T14:06:47;9.00;;;5.43;;
46765;SDS011;32527;51.986;5.842;2024-02-26T14:09:13;5.82;;;3.75;;
46765;SDS011;32527;51.986;5.842;2024-02-26T14:11:47;4.95;;;3.70;;
46765;SDS011;32527;51.986;5.842;2024-02-26T14:14:13;7.00;;;4.85;;
46765;SDS011;32527;51.986;5.842;2024-02-26T14:16:40;7.07;;;4.10;;
46765;SDS011;32527;51.986;5.842;2024-02-26T14:19:06;8.10;;;5.20;;
46765;SDS011;32527;51.986;5.842;2024-02-26T14:21:32;5.28;;;3.95;;
46765;SDS011;32527;51.986;5.842;2024-02-26T14:23:58;6.45;;;4.72;;
46765;SDS011;32527;51.986;5.842;2024-02-26T14:26:24;6.65;;;4.40;;
46765;SDS011;32527;51.986;5.842;2024-02-26T14:28:50;5.28;;;4.25;;
46765;SDS011;32527;51.986;5.842;2024-02-26T14:31:19;7.53;;;6.03;;
46765;SDS011;32527;51.986;5.842;2024-02-26T14:33:45;6.22;;;3.70;;
46765;SDS011;32527;51.986;5.842;2024-02-26T14:36:13;7.68;;;3.55;;
46765;SDS011;32527;51.986;5.842;2024-02-26T14:38:39;6.88;;;4.65;;
46765;SDS011;32527;51.986;5.842;2024-02-26T14:41:05;7.13;;;4.82;;
46765;SDS011;32527;51.986;5.842;2024-02-26T14:43:31;7.70;;;3.40;;
46765;SDS011;32527;51.986;5.842;2024-02-26T14:45:57;7.18;;;4.45;;
46765;SDS011;32527;51.986;5.842;2024-02-26T14:48:24;11.20;;;5.30;;
46765;SDS011;32527;51.986;5.842;2024-02-26T14:50:50;7.57;;;4.78;;
46765;SDS011;32527;51.986;5.842;2024-02-26T14:53:19;5.90;;;4.45;;